createdAt,value
2023-04-08T00:00:50.645Z,1015.42
2023-04-08T00:01:50.688Z,1015.42
2023-04-08T00:02:50.694Z,1015.42
2023-04-08T00:03:50.749Z,1015.42
2023-04-08T00:04:50.671Z,1015.42
2023-04-08T00:05:50.592Z,1015.41
2023-04-08T00:06:50.584Z,1015.42
2023-04-08T00:07:50.572Z,1015.38
2023-04-08T00:08:50.765Z,1015.39
2023-04-08T00:09:50.571Z,1015.42
2023-04-08T00:10:50.563Z,1015.44
2023-04-08T00:11:50.528Z,1015.46
2023-04-08T00:12:50.509Z,1015.51
2023-04-08T00:13:50.515Z,1015.52
2023-04-08T00:14:50.490Z,1015.47
2023-04-08T00:15:50.480Z,1015.52
2023-04-08T00:16:50.752Z,1015.54
2023-04-08T00:17:50.495Z,1015.49
2023-04-08T00:18:50.658Z,1015.50
2023-04-08T00:19:50.438Z,1015.47
2023-04-08T00:20:50.432Z,1015.47
2023-04-08T00:21:50.416Z,1015.48
2023-04-08T00:22:50.452Z,1015.48
2023-04-08T00:23:50.398Z,1015.55
2023-04-08T00:24:50.379Z,1015.53
2023-04-08T00:25:50.378Z,1015.52
2023-04-08T00:26:50.413Z,1015.52
2023-04-08T00:27:50.352Z,1015.54
2023-04-08T00:28:50.478Z,1015.53
2023-04-08T00:29:50.345Z,1015.55
2023-04-08T00:30:50.338Z,1015.56
2023-04-08T00:31:50.316Z,1015.55
2023-04-08T00:32:50.418Z,1015.54
2023-04-08T00:33:50.295Z,1015.52
2023-04-08T00:34:50.327Z,1015.56
2023-04-08T00:35:50.359Z,1015.53
2023-04-08T00:36:50.255Z,1015.56
2023-04-08T00:37:50.249Z,1015.59
2023-04-08T00:38:50.542Z,1015.56
2023-04-08T00:39:50.224Z,1015.56
2023-04-08T00:40:50.209Z,1015.59
2023-04-08T00:41:50.209Z,1015.57
2023-04-08T00:42:50.204Z,1015.55
2023-04-08T00:43:50.212Z,1015.57
2023-04-08T00:44:50.175Z,1015.57
2023-04-08T00:45:50.242Z,1015.57
2023-04-08T00:46:50.190Z,1015.53
2023-04-08T00:47:50.250Z,1015.59
2023-04-08T00:48:50.484Z,1015.60
2023-04-08T00:49:50.131Z,1015.61
2023-04-08T00:50:50.099Z,1015.57
2023-04-08T00:51:50.167Z,1015.60
2023-04-08T00:52:50.079Z,1015.61
2023-04-08T00:53:50.074Z,1015.62
2023-04-08T00:54:50.366Z,1015.61
2023-04-08T00:55:50.085Z,1015.66
2023-04-08T00:56:50.041Z,1015.64
2023-04-08T00:57:50.032Z,1015.66
2023-04-08T00:58:50.179Z,1015.64
2023-04-08T00:59:50.012Z,1015.62
2023-04-08T01:00:50.022Z,1015.60
2023-04-08T01:01:50.070Z,1015.59
2023-04-08T01:02:50.179Z,1015.62
2023-04-08T01:03:50.085Z,1015.66
2023-04-08T01:04:49.968Z,1015.65
2023-04-08T01:05:49.950Z,1015.71
2023-04-08T01:06:49.964Z,1015.77
2023-04-08T01:07:49.957Z,1015.81
2023-04-08T01:08:50.151Z,1015.78
2023-04-08T01:09:49.915Z,1015.71
2023-04-08T01:10:49.888Z,1015.72
2023-04-08T01:11:49.924Z,1015.76
2023-04-08T01:12:49.900Z,1015.75
2023-04-08T01:13:49.878Z,1015.72
2023-04-08T01:14:49.849Z,1015.72
2023-04-08T01:15:49.863Z,1015.76
2023-04-08T01:16:49.828Z,1015.80
2023-04-08T01:17:49.880Z,1015.81
2023-04-08T01:18:49.978Z,1015.78
2023-04-08T01:19:49.804Z,1015.73
2023-04-08T01:20:49.782Z,1015.73
2023-04-08T01:21:49.814Z,1015.71
2023-04-08T01:22:49.803Z,1015.75
2023-04-08T01:23:49.765Z,1015.74
2023-04-08T01:24:49.771Z,1015.83
2023-04-08T01:25:49.748Z,1015.78
2023-04-08T01:26:49.724Z,1015.69
2023-04-08T01:27:49.805Z,1015.71
2023-04-08T01:28:49.887Z,1015.73
2023-04-08T01:29:49.699Z,1015.75
2023-04-08T01:30:49.752Z,1015.78
2023-04-08T01:31:49.784Z,1015.80
2023-04-08T01:32:49.722Z,1015.77
2023-04-08T01:33:49.698Z,1015.72
2023-04-08T01:34:49.641Z,1015.76
2023-04-08T01:35:49.655Z,1015.75
2023-04-08T01:36:49.624Z,1015.76
2023-04-08T01:37:49.712Z,1015.75
2023-04-08T01:38:49.750Z,1015.77
2023-04-08T01:39:49.591Z,1015.77
2023-04-08T01:40:49.592Z,1015.75
2023-04-08T01:41:49.581Z,1015.72
2023-04-08T01:42:49.594Z,1015.75
2023-04-08T01:43:49.601Z,1015.73
2023-04-08T01:44:49.546Z,1015.72
2023-04-08T01:45:49.534Z,1015.76
2023-04-08T01:46:49.692Z,1015.78
2023-04-08T01:47:49.546Z,1015.75
2023-04-08T01:48:49.750Z,1015.77
2023-04-08T01:49:49.505Z,1015.73
2023-04-08T01:50:49.474Z,1015.75
2023-04-08T01:51:49.473Z,1015.80
2023-04-08T01:52:49.482Z,1015.76
2023-04-08T01:53:49.502Z,1015.75
2023-04-08T01:54:49.442Z,1015.77
2023-04-08T01:55:49.459Z,1015.78
2023-04-08T01:56:49.453Z,1015.76
2023-04-08T01:57:49.422Z,1015.75
2023-04-08T01:58:49.596Z,1015.71
2023-04-08T01:59:49.393Z,1015.73
2023-04-08T02:00:49.366Z,1015.74
2023-04-08T02:01:49.525Z,1015.78
2023-04-08T02:02:49.558Z,1015.77
2023-04-08T02:03:49.476Z,1015.76
2023-04-08T02:04:49.462Z,1015.77
2023-04-08T02:05:49.318Z,1015.77
2023-04-08T02:06:49.299Z,1015.76
2023-04-08T02:07:49.310Z,1015.72
2023-04-08T02:08:49.446Z,1015.72
2023-04-08T02:09:49.289Z,1015.72
2023-04-08T02:10:49.286Z,1015.69
2023-04-08T02:11:49.294Z,1015.69
2023-04-08T02:12:49.251Z,1015.72
2023-04-08T02:13:49.233Z,1015.72
2023-04-08T02:14:49.249Z,1015.70
2023-04-08T02:15:49.230Z,1015.72
2023-04-08T02:16:49.255Z,1015.69
2023-04-08T02:17:49.703Z,1015.74
2023-04-08T02:18:49.433Z,1015.73
2023-04-08T02:19:49.170Z,1015.76
2023-04-08T02:20:49.165Z,1015.76
2023-04-08T02:21:49.212Z,1015.73
2023-04-08T02:22:49.130Z,1015.76
2023-04-08T02:23:49.129Z,1015.77
2023-04-08T02:24:49.130Z,1015.81
2023-04-08T02:25:49.101Z,1015.81
2023-04-08T02:26:49.097Z,1015.85
2023-04-08T02:27:49.122Z,1015.84
2023-04-08T02:28:49.291Z,1015.82
2023-04-08T02:29:49.063Z,1015.84
2023-04-08T02:30:49.057Z,1015.81
2023-04-08T02:31:49.073Z,1015.82
2023-04-08T02:32:49.101Z,1015.83
2023-04-08T02:33:49.046Z,1015.93
2023-04-08T02:34:49.049Z,1015.88
2023-04-08T02:35:49.020Z,1015.94
2023-04-08T02:36:49.010Z,1015.92
2023-04-08T02:37:49.015Z,1015.91
2023-04-08T02:38:49.335Z,1015.98
2023-04-08T02:39:48.962Z,1015.97
2023-04-08T02:40:48.945Z,1015.97
2023-04-08T02:41:48.977Z,1015.98
2023-04-08T02:42:48.949Z,1015.97
2023-04-08T02:43:49.175Z,1015.99
2023-04-08T02:44:48.904Z,1015.97
2023-04-08T02:45:48.976Z,1015.98
2023-04-08T02:46:48.890Z,1015.96
2023-04-08T02:47:48.919Z,1015.95
2023-04-08T02:48:49.261Z,1015.97
2023-04-08T02:49:48.848Z,1015.96
2023-04-08T02:50:48.840Z,1016.01
2023-04-08T02:51:48.854Z,1015.99
2023-04-08T02:52:48.819Z,1016.02
2023-04-08T02:53:48.854Z,1016.06
2023-04-08T02:54:48.825Z,1016.01
2023-04-08T02:55:48.820Z,1015.99
2023-04-08T02:56:48.781Z,1015.99
2023-04-08T02:57:48.789Z,1016.02
2023-04-08T02:58:48.975Z,1016.04
2023-04-08T02:59:48.828Z,1016.05
2023-04-08T03:00:48.796Z,1016.04
2023-04-08T03:01:48.800Z,1016.03
2023-04-08T03:02:48.938Z,1016.04
2023-04-08T03:03:48.871Z,1016.01
2023-04-08T03:04:48.736Z,1016.07
2023-04-08T03:05:48.694Z,1016.06
2023-04-08T03:06:48.709Z,1016.11
2023-04-08T03:07:48.664Z,1016.10
2023-04-08T03:08:48.912Z,1016.06
2023-04-08T03:09:48.644Z,1016.06
2023-04-08T03:10:48.625Z,1016.07
2023-04-08T03:11:48.632Z,1016.11
2023-04-08T03:12:48.633Z,1016.12
2023-04-08T03:13:48.632Z,1016.16
2023-04-08T03:14:48.599Z,1016.17
2023-04-08T03:15:48.594Z,1016.14
2023-04-08T03:16:48.591Z,1016.14
2023-04-08T03:17:48.618Z,1016.15
2023-04-08T03:18:48.855Z,1016.15
2023-04-08T03:19:48.589Z,1016.13
2023-04-08T03:20:48.522Z,1016.14
2023-04-08T03:21:48.511Z,1016.13
2023-04-08T03:22:48.500Z,1016.19
2023-04-08T03:23:48.507Z,1016.14
2023-04-08T03:24:48.521Z,1016.19
2023-04-08T03:25:48.476Z,1016.18
2023-04-08T03:26:48.468Z,1016.14
2023-04-08T03:27:48.453Z,1016.17
2023-04-08T03:28:48.726Z,1016.13
2023-04-08T03:29:48.476Z,1016.17
2023-04-08T03:30:48.404Z,1016.17
2023-04-08T03:31:48.448Z,1016.16
2023-04-08T03:32:48.424Z,1016.14
2023-04-08T03:33:48.389Z,1016.09
2023-04-08T03:34:48.382Z,1016.10
2023-04-08T03:35:48.604Z,1016.14
2023-04-08T03:36:48.353Z,1016.14
2023-04-08T03:37:48.345Z,1016.12
2023-04-08T03:38:48.618Z,1016.12
2023-04-08T03:39:48.325Z,1016.13
2023-04-08T03:40:48.335Z,1016.17
2023-04-08T03:41:48.309Z,1016.21
2023-04-08T03:42:48.321Z,1016.18
2023-04-08T03:43:48.271Z,1016.14
2023-04-08T03:44:48.268Z,1016.18
2023-04-08T03:45:48.325Z,1016.11
2023-04-08T03:46:48.287Z,1016.12
2023-04-08T03:47:48.254Z,1016.13
2023-04-08T03:48:48.556Z,1016.08
2023-04-08T03:49:48.252Z,1016.11
2023-04-08T03:50:48.201Z,1016.14
2023-04-08T03:51:48.187Z,1016.18
2023-04-08T03:52:48.181Z,1016.17
2023-04-08T03:53:48.170Z,1016.20
2023-04-08T03:54:48.163Z,1016.19
2023-04-08T03:55:48.181Z,1016.19
2023-04-08T03:56:48.214Z,1016.20
2023-04-08T03:57:48.135Z,1016.23
2023-04-08T03:58:48.187Z,1016.28
2023-04-08T03:59:48.128Z,1016.30
2023-04-08T04:00:48.094Z,1016.31
2023-04-08T04:01:48.209Z,1016.33
2023-04-08T04:02:48.116Z,1016.27
2023-04-08T04:03:48.237Z,1016.27
2023-04-08T04:04:48.232Z,1016.26
2023-04-08T04:05:48.041Z,1016.20
2023-04-08T04:06:48.074Z,1016.24
2023-04-08T04:07:48.015Z,1016.26
2023-04-08T04:08:48.375Z,1016.28
2023-04-08T04:09:48.034Z,1016.25
2023-04-08T04:10:47.992Z,1016.23
2023-04-08T04:11:48.017Z,1016.22
2023-04-08T04:12:48.084Z,1016.26
2023-04-08T04:13:47.976Z,1016.25
2023-04-08T04:14:47.948Z,1016.26
2023-04-08T04:15:47.966Z,1016.30
2023-04-08T04:16:47.936Z,1016.28
2023-04-08T04:17:47.942Z,1016.27
2023-04-08T04:18:48.004Z,1016.24
2023-04-08T04:19:47.915Z,1016.29
2023-04-08T04:20:47.883Z,1016.28
2023-04-08T04:21:49.971Z,1016.27
2023-04-08T04:22:47.867Z,1016.23
2023-04-08T04:23:47.855Z,1016.26
2023-04-08T04:24:47.835Z,1016.31
2023-04-08T04:25:47.823Z,1016.35
2023-04-08T04:26:47.955Z,1016.35
2023-04-08T04:27:47.806Z,1016.37
2023-04-08T04:28:48.165Z,1016.39
2023-04-08T04:29:47.802Z,1016.32
2023-04-08T04:30:47.834Z,1016.39
2023-04-08T04:31:47.757Z,1016.40
2023-04-08T04:32:47.777Z,1016.41
2023-04-08T04:33:47.770Z,1016.43
2023-04-08T04:34:47.743Z,1016.44
2023-04-08T04:35:47.770Z,1016.40
2023-04-08T04:36:47.707Z,1016.44
2023-04-08T04:37:47.699Z,1016.44
2023-04-08T04:38:50.051Z,1016.46
2023-04-08T04:39:47.677Z,1016.51
2023-04-08T04:40:47.674Z,1016.46
2023-04-08T04:41:47.673Z,1016.50
2023-04-08T04:42:47.645Z,1016.52
2023-04-08T04:43:47.666Z,1016.49
2023-04-08T04:44:47.624Z,1016.53
2023-04-08T04:45:47.601Z,1016.52
2023-04-08T04:46:47.695Z,1016.53
2023-04-08T04:47:47.669Z,1016.51
2023-04-08T04:48:47.874Z,1016.56
2023-04-08T04:49:47.574Z,1016.57
2023-04-08T04:50:47.562Z,1016.57
2023-04-08T04:51:47.558Z,1016.55
2023-04-08T04:52:47.545Z,1016.60
2023-04-08T04:53:50.874Z,1016.59
2023-04-08T04:54:47.546Z,1016.60
2023-04-08T04:56:45.723Z,1016.69
2023-04-08T04:57:45.615Z,1016.59
2023-04-08T04:58:45.660Z,1016.64
2023-04-08T04:59:45.625Z,1016.63
2023-04-08T05:00:45.580Z,1016.65
2023-04-08T05:01:45.701Z,1016.61
2023-04-08T05:02:45.740Z,1016.63
2023-04-08T05:03:45.633Z,1016.65
2023-04-08T05:04:45.590Z,1016.66
2023-04-08T05:05:45.530Z,1016.67
2023-04-08T05:06:45.572Z,1016.69
2023-04-08T05:07:46.091Z,1016.69
2023-04-08T05:08:45.497Z,1016.64
2023-04-08T05:09:45.511Z,1016.73
2023-04-08T05:10:45.513Z,1016.67
2023-04-08T05:11:45.475Z,1016.68
2023-04-08T05:12:45.456Z,1016.64
2023-04-08T05:13:45.490Z,1016.69
2023-04-08T05:14:45.448Z,1016.66
2023-04-08T05:15:45.461Z,1016.67
2023-04-08T05:16:45.421Z,1016.74
2023-04-08T05:17:45.508Z,1016.72
2023-04-08T05:18:45.394Z,1016.78
2023-04-08T05:19:45.417Z,1016.72
2023-04-08T05:20:45.389Z,1016.74
2023-04-08T05:21:45.449Z,1016.71
2023-04-08T05:22:45.378Z,1016.79
2023-04-08T05:23:45.394Z,1016.80
2023-04-08T05:24:45.335Z,1016.77
2023-04-08T05:25:45.331Z,1016.69
2023-04-08T05:26:45.352Z,1016.74
2023-04-08T05:27:45.306Z,1016.76
2023-04-08T05:28:45.294Z,1016.72
2023-04-08T05:29:45.370Z,1016.78
2023-04-08T05:30:45.268Z,1016.78
2023-04-08T05:31:45.298Z,1016.76
2023-04-08T05:32:45.309Z,1016.77
2023-04-08T05:33:45.294Z,1016.77
2023-04-08T05:34:45.233Z,1016.78
2023-04-08T05:35:45.262Z,1016.76
2023-04-08T05:36:45.257Z,1016.84
2023-04-08T05:37:45.197Z,1016.83
2023-04-08T05:38:45.189Z,1016.90
2023-04-08T05:39:45.259Z,1016.89
2023-04-08T05:40:45.163Z,1016.93
2023-04-08T05:41:45.176Z,1016.95
2023-04-08T05:42:45.141Z,1016.96
2023-04-08T05:43:45.173Z,1016.99
2023-04-08T05:44:45.114Z,1016.94
2023-04-08T05:45:45.152Z,1016.98
2023-04-08T05:46:45.142Z,1016.99
2023-04-08T05:47:45.205Z,1016.97
2023-04-08T05:48:45.115Z,1017.00
2023-04-08T05:49:45.072Z,1016.98
2023-04-08T05:50:45.067Z,1017.00
2023-04-08T05:51:45.084Z,1016.99
2023-04-08T05:52:45.051Z,1016.98
2023-04-08T05:53:45.067Z,1017.07
2023-04-08T05:54:45.023Z,1017.10
2023-04-08T05:55:45.005Z,1017.12
2023-04-08T05:56:44.997Z,1017.15
2023-04-08T05:57:44.993Z,1017.22
2023-04-08T05:58:45.006Z,1017.22
2023-04-08T05:59:44.992Z,1017.23
2023-04-08T06:00:44.951Z,1017.21
2023-04-08T06:01:45.000Z,1017.23
2023-04-08T06:02:45.094Z,1017.27
2023-04-08T06:03:45.069Z,1017.26
2023-04-08T06:04:45.021Z,1017.22
2023-04-08T06:05:44.898Z,1017.25
2023-04-08T06:06:44.888Z,1017.22
2023-04-08T06:07:44.875Z,1017.23
2023-04-08T06:08:44.861Z,1017.20
2023-04-08T06:09:45.451Z,1017.22
2023-04-08T06:10:45.078Z,1017.25
2023-04-08T06:11:44.849Z,1017.22
2023-04-08T06:12:44.819Z,1017.24
2023-04-08T06:13:44.838Z,1017.21
2023-04-08T06:14:44.906Z,1017.20
2023-04-08T06:15:44.784Z,1017.14
2023-04-08T06:16:44.868Z,1017.14
2023-04-08T06:17:44.850Z,1017.19
2023-04-08T06:18:44.747Z,1017.16
2023-04-08T06:19:44.736Z,1017.24
2023-04-08T06:20:44.737Z,1017.22
2023-04-08T06:21:44.770Z,1017.29
2023-04-08T06:22:44.709Z,1017.33
2023-04-08T06:23:44.710Z,1017.35
2023-04-08T06:24:44.687Z,1017.35
2023-04-08T06:25:44.687Z,1017.35
2023-04-08T06:26:44.856Z,1017.36
2023-04-08T06:27:44.770Z,1017.36
2023-04-08T06:28:44.645Z,1017.42
2023-04-08T06:29:44.641Z,1017.42
2023-04-08T06:30:44.635Z,1017.48
2023-04-08T06:31:44.640Z,1017.45
2023-04-08T06:32:45.106Z,1017.44
2023-04-08T06:33:44.605Z,1017.43
2023-04-08T06:34:44.584Z,1017.44
2023-04-08T06:35:44.602Z,1017.43
2023-04-08T06:36:44.570Z,1017.42
2023-04-08T06:37:44.561Z,1017.46
2023-04-08T06:38:44.606Z,1017.47
2023-04-08T06:39:44.726Z,1017.50
2023-04-08T06:40:44.554Z,1017.54
2023-04-08T06:41:44.572Z,1017.54
2023-04-08T06:42:44.529Z,1017.52
2023-04-08T06:43:44.497Z,1017.52
2023-04-08T06:44:44.538Z,1017.52
2023-04-08T06:45:44.500Z,1017.45
2023-04-08T06:46:44.464Z,1017.55
2023-04-08T06:47:44.624Z,1017.55
2023-04-08T06:48:44.435Z,1017.56
2023-04-08T06:49:44.490Z,1017.53
2023-04-08T06:50:44.415Z,1017.50
2023-04-08T06:51:44.401Z,1017.52
2023-04-08T06:52:44.480Z,1017.53
2023-04-08T06:53:44.424Z,1017.53
2023-04-08T06:54:44.378Z,1017.55
2023-04-08T06:55:44.414Z,1017.55
2023-04-08T06:56:44.350Z,1017.59
2023-04-08T06:57:44.380Z,1017.64
2023-04-08T06:58:44.343Z,1017.63
2023-04-08T06:59:44.341Z,1017.65
2023-04-08T07:00:44.311Z,1017.70
2023-04-08T07:01:44.580Z,1017.71
2023-04-08T07:02:44.412Z,1017.74
2023-04-08T07:03:44.345Z,1017.78
2023-04-08T07:04:46.662Z,1017.74
2023-04-08T07:05:44.263Z,1017.79
2023-04-08T07:06:44.287Z,1017.79
2023-04-08T07:07:44.242Z,1017.78
2023-04-08T07:08:44.228Z,1017.73
2023-04-08T07:09:44.223Z,1017.74
2023-04-08T07:10:44.271Z,1017.75
2023-04-08T07:11:44.204Z,1017.76
2023-04-08T07:12:45.258Z,1017.74
2023-04-08T07:13:44.185Z,1017.82
2023-04-08T07:14:44.148Z,1017.78
2023-04-08T07:15:44.144Z,1017.79
2023-04-08T07:16:44.170Z,1017.90
2023-04-08T07:17:44.187Z,1017.89
2023-04-08T07:18:44.146Z,1017.85
2023-04-08T07:19:44.160Z,1017.79
2023-04-08T07:20:44.146Z,1017.79
2023-04-08T07:21:44.087Z,1017.80
2023-04-08T07:22:44.105Z,1017.80
2023-04-08T07:23:44.073Z,1017.81
2023-04-08T07:24:44.059Z,1017.85
2023-04-08T07:25:44.180Z,1017.80
2023-04-08T07:26:44.035Z,1017.85
2023-04-08T07:27:44.084Z,1017.83
2023-04-08T07:28:44.012Z,1017.84
2023-04-08T07:29:44.010Z,1017.85
2023-04-08T07:30:44.014Z,1017.82
2023-04-08T07:31:44.029Z,1017.82
2023-04-08T07:32:44.055Z,1017.82
2023-04-08T07:33:43.975Z,1017.81
2023-04-08T07:34:43.982Z,1017.86
2023-04-08T07:35:43.981Z,1017.80
2023-04-08T07:36:43.948Z,1017.82
2023-04-08T07:37:44.871Z,1017.83
2023-04-08T07:38:43.892Z,1017.83
2023-04-08T07:39:43.939Z,1017.86
2023-04-08T07:40:43.878Z,1017.87
2023-04-08T07:41:43.875Z,1017.93
2023-04-08T07:42:43.880Z,1017.91
2023-04-08T07:43:43.853Z,1017.92
2023-04-08T07:44:43.850Z,1017.95
2023-04-08T07:45:43.843Z,1017.93
2023-04-08T07:46:43.820Z,1017.99
2023-04-08T07:47:43.982Z,1017.98
2023-04-08T07:48:47.904Z,1018.03
2023-04-08T07:49:43.785Z,1018.03
2023-04-08T07:51:09.091Z,1018.07
2023-04-08T07:51:44.795Z,1017.97
2023-04-08T07:52:43.755Z,1018.03
2023-04-08T07:53:43.798Z,1018.06
2023-04-08T07:54:43.771Z,1018.06
2023-04-08T07:55:43.725Z,1018.03
2023-04-08T07:56:43.748Z,1018.07
2023-04-08T07:57:43.791Z,1018.10
2023-04-08T07:58:43.746Z,1018.07
2023-04-08T07:59:43.739Z,1018.07
2023-04-08T08:00:43.668Z,1018.07
2023-04-08T08:01:43.723Z,1018.07
2023-04-08T08:02:43.774Z,1018.10
2023-04-08T08:03:45.261Z,1018.13
2023-04-08T08:04:43.806Z,1018.11
2023-04-08T08:05:43.611Z,1018.11
2023-04-08T08:06:43.636Z,1018.12
2023-04-08T08:07:43.750Z,1018.23
2023-04-08T08:08:43.652Z,1018.20
2023-04-08T08:09:43.612Z,1018.21
2023-04-08T08:10:43.568Z,1018.27
2023-04-08T08:11:43.547Z,1018.21
2023-04-08T08:12:43.540Z,1018.21
2023-04-08T08:13:43.550Z,1018.19
2023-04-08T08:14:43.544Z,1018.18
2023-04-08T08:15:43.695Z,1018.16
2023-04-08T08:16:43.506Z,1018.15
2023-04-08T08:17:43.552Z,1018.15
2023-04-08T08:18:43.471Z,1018.20
2023-04-08T08:19:43.468Z,1018.24
2023-04-08T08:20:43.481Z,1018.22
2023-04-08T08:21:43.481Z,1018.26
2023-04-08T08:22:54.491Z,1018.26
2023-04-08T08:23:44.429Z,1018.32
2023-04-08T08:24:43.485Z,1018.27
2023-04-08T08:25:43.437Z,1018.30
2023-04-08T08:26:43.390Z,1018.31
2023-04-08T08:27:43.381Z,1018.28
2023-04-08T08:28:43.358Z,1018.37
2023-04-08T08:29:43.385Z,1018.35
2023-04-08T08:30:43.406Z,1018.31
2023-04-08T08:31:43.489Z,1018.34
2023-04-08T08:32:43.363Z,1018.34
2023-04-08T08:33:43.313Z,1018.37
2023-04-08T08:34:43.304Z,1018.45
2023-04-08T08:35:43.387Z,1018.41
2023-04-08T08:36:43.288Z,1018.37
2023-04-08T08:37:43.274Z,1018.40
2023-04-08T08:38:43.340Z,1018.38
2023-04-08T08:39:43.262Z,1018.38
2023-04-08T08:40:43.242Z,1018.43
2023-04-08T08:41:43.409Z,1018.41
2023-04-08T08:42:43.232Z,1018.45
2023-04-08T08:43:43.245Z,1018.47
2023-04-08T08:44:43.190Z,1018.46
2023-04-08T08:45:43.217Z,1018.51
2023-04-08T08:46:43.194Z,1018.46
2023-04-08T08:47:43.536Z,1018.47
2023-04-08T08:48:43.155Z,1018.49
2023-04-08T08:49:43.159Z,1018.49
2023-04-08T08:50:43.141Z,1018.55
2023-04-08T08:51:43.187Z,1018.56
2023-04-08T08:52:43.112Z,1018.58
2023-04-08T08:53:43.115Z,1018.64
2023-04-08T08:54:43.087Z,1018.69
2023-04-08T08:56:43.072Z,1018.68
2023-04-08T08:57:43.048Z,1018.69
2023-04-08T08:58:43.049Z,1018.70
2023-04-08T08:59:43.118Z,1018.66
2023-04-08T09:00:43.017Z,1018.70
2023-04-08T09:01:43.084Z,1018.70
2023-04-08T09:02:43.156Z,1018.70
2023-04-08T09:03:43.166Z,1018.67
2023-04-08T09:04:43.167Z,1018.64
2023-04-08T09:05:43.166Z,1018.67
2023-04-08T09:06:43.017Z,1018.65
2023-04-08T09:07:43.025Z,1018.60
2023-04-08T09:08:42.944Z,1018.63
2023-04-08T09:09:42.922Z,1018.65
2023-04-08T09:10:42.923Z,1018.67
2023-04-08T09:11:42.997Z,1018.67
2023-04-08T09:12:42.915Z,1018.61
2023-04-08T09:13:42.940Z,1018.66
2023-04-08T09:14:42.915Z,1018.67
2023-04-08T09:15:42.857Z,1018.63
2023-04-08T09:16:43.201Z,1018.69
2023-04-08T09:17:42.946Z,1018.65
2023-04-08T09:18:42.845Z,1018.65
2023-04-08T09:19:42.860Z,1018.68
2023-04-08T09:20:42.824Z,1018.64
2023-04-08T09:21:42.811Z,1018.62
2023-04-08T09:22:42.794Z,1018.60
2023-04-08T09:23:42.777Z,1018.62
2023-04-08T09:24:42.996Z,1018.60
2023-04-08T09:25:42.753Z,1018.60
2023-04-08T09:26:42.757Z,1018.62
2023-04-08T09:27:42.756Z,1018.63
2023-04-08T09:28:42.725Z,1018.62
2023-04-08T09:29:42.725Z,1018.63
2023-04-08T09:30:43.425Z,1018.62
2023-04-08T09:31:42.762Z,1018.65
2023-04-08T09:32:42.723Z,1018.65
2023-04-08T09:33:42.660Z,1018.67
2023-04-08T09:34:42.713Z,1018.69
2023-04-08T09:35:42.727Z,1018.71
2023-04-08T09:36:42.637Z,1018.70
2023-04-08T09:37:42.696Z,1018.70
2023-04-08T09:38:42.653Z,1018.80
2023-04-08T09:39:42.643Z,1018.82
2023-04-08T09:40:42.611Z,1018.83
2023-04-08T09:41:42.632Z,1018.79
2023-04-08T09:42:42.581Z,1018.84
2023-04-08T09:43:42.568Z,1018.79
2023-04-08T09:44:42.570Z,1018.80
2023-04-08T09:45:42.764Z,1018.79
2023-04-08T09:46:42.547Z,1018.81
2023-04-08T09:47:42.562Z,1018.81
2023-04-08T09:48:42.522Z,1018.84
2023-04-08T09:49:42.525Z,1018.83
2023-04-08T09:50:42.767Z,1018.81
2023-04-08T09:51:42.480Z,1018.80
2023-04-08T09:52:42.479Z,1018.81
2023-04-08T09:53:42.453Z,1018.79
2023-04-08T09:54:42.447Z,1018.79
2023-04-08T09:55:42.437Z,1018.79
2023-04-08T09:56:42.893Z,1018.83
2023-04-08T09:57:42.453Z,1018.84
2023-04-08T09:58:42.447Z,1018.82
2023-04-08T09:59:42.395Z,1018.83
2023-04-08T10:00:42.447Z,1018.81
2023-04-08T10:01:42.511Z,1018.83
2023-04-08T10:02:42.820Z,1018.85
2023-04-08T10:03:42.405Z,1018.82
2023-04-08T10:04:42.428Z,1018.84
2023-04-08T10:05:42.364Z,1018.86
2023-04-08T10:06:42.333Z,1018.85
2023-04-08T10:07:42.428Z,1018.81
2023-04-08T10:08:42.310Z,1018.80
2023-04-08T10:09:42.302Z,1018.82
2023-04-08T10:10:42.328Z,1018.83
2023-04-08T10:11:42.331Z,1018.77
2023-04-08T10:12:42.299Z,1018.75
2023-04-08T10:13:42.465Z,1018.72
2023-04-08T10:14:42.248Z,1018.72
2023-04-08T10:15:42.242Z,1018.75
2023-04-08T10:16:42.275Z,1018.79
2023-04-08T10:17:42.289Z,1018.79
2023-04-08T10:18:42.252Z,1018.81
2023-04-08T10:19:42.247Z,1018.84
2023-04-08T10:20:42.232Z,1018.77
2023-04-08T10:21:42.169Z,1018.81
2023-04-08T10:22:42.155Z,1018.85
2023-04-08T10:23:42.238Z,1018.83
2023-04-08T10:24:42.132Z,1018.89
2023-04-08T10:25:42.140Z,1018.84
2023-04-08T10:26:42.114Z,1018.87
2023-04-08T10:27:42.092Z,1018.81
2023-04-08T10:28:42.105Z,1018.83
2023-04-08T10:29:42.114Z,1018.85
2023-04-08T10:30:42.568Z,1018.81
2023-04-08T10:31:42.189Z,1018.80
2023-04-08T10:32:42.106Z,1018.83
2023-04-08T10:33:42.078Z,1018.80
2023-04-08T10:34:42.030Z,1018.84
2023-04-08T10:35:42.160Z,1018.87
2023-04-08T10:36:41.999Z,1018.86
2023-04-08T10:37:42.146Z,1018.87
2023-04-08T10:38:41.994Z,1018.90
2023-04-08T10:39:41.969Z,1018.89
2023-04-08T10:40:42.026Z,1018.88
2023-04-08T10:41:41.981Z,1018.84
2023-04-08T10:42:41.933Z,1018.80
2023-04-08T10:43:42.001Z,1018.73
2023-04-08T10:44:41.936Z,1018.73
2023-04-08T10:45:41.983Z,1018.77
2023-04-08T10:46:42.212Z,1018.80
2023-04-08T10:47:41.967Z,1018.79
2023-04-08T10:48:41.894Z,1018.77
2023-04-08T10:49:41.864Z,1018.79
2023-04-08T10:50:41.901Z,1018.76
2023-04-08T10:51:41.836Z,1018.78
2023-04-08T10:52:41.870Z,1018.73
2023-04-08T10:53:41.816Z,1018.75
2023-04-08T10:54:41.817Z,1018.74
2023-04-08T10:55:41.795Z,1018.75
2023-04-08T10:56:41.800Z,1018.70
2023-04-08T10:57:41.771Z,1018.68
2023-04-08T10:58:41.835Z,1018.70
2023-04-08T10:59:41.791Z,1018.70
2023-04-08T11:00:41.773Z,1018.69
2023-04-08T11:01:41.796Z,1018.71
2023-04-08T11:02:41.876Z,1018.68
2023-04-08T11:03:41.995Z,1018.70
2023-04-08T11:04:41.820Z,1018.69
2023-04-08T11:05:41.700Z,1018.64
2023-04-08T11:06:41.775Z,1018.59
2023-04-08T11:07:41.678Z,1018.59
2023-04-08T11:08:41.678Z,1018.62
2023-04-08T11:09:41.648Z,1018.63
2023-04-08T11:10:41.639Z,1018.66
2023-04-08T11:11:41.707Z,1018.67
2023-04-08T11:12:41.625Z,1018.63
2023-04-08T11:13:46.222Z,1018.62
2023-04-08T11:14:42.630Z,1018.61
2023-04-08T11:15:41.591Z,1018.65
2023-04-08T11:16:42.542Z,1018.65
2023-04-08T11:17:41.599Z,1018.64
2023-04-08T11:18:41.567Z,1018.65
2023-04-08T11:19:41.584Z,1018.63
2023-04-08T11:20:41.537Z,1018.64
2023-04-08T11:21:41.530Z,1018.66
2023-04-08T11:22:41.528Z,1018.65
2023-04-08T11:23:41.489Z,1018.65
2023-04-08T11:24:41.580Z,1018.66
2023-04-08T11:25:41.473Z,1018.67
2023-04-08T11:26:41.481Z,1018.76
2023-04-08T11:27:41.451Z,1018.65
2023-04-08T11:28:41.447Z,1018.62
2023-04-08T11:29:41.463Z,1018.65
2023-04-08T11:30:42.272Z,1018.67
2023-04-08T11:31:41.531Z,1018.68
2023-04-08T11:32:41.417Z,1018.67
2023-04-08T11:33:41.390Z,1018.68
2023-04-08T11:34:41.379Z,1018.68
2023-04-08T11:35:41.411Z,1018.70
2023-04-08T11:36:41.397Z,1018.71
2023-04-08T11:37:41.344Z,1018.66
2023-04-08T11:38:41.340Z,1018.67
2023-04-08T11:39:41.376Z,1018.65
2023-04-08T11:40:41.373Z,1018.63
2023-04-08T11:41:41.318Z,1018.62
2023-04-08T11:42:41.304Z,1018.63
2023-04-08T11:43:41.281Z,1018.64
2023-04-08T11:44:41.289Z,1018.64
2023-04-08T11:45:41.265Z,1018.64
2023-04-08T11:46:41.326Z,1018.63
2023-04-08T11:47:41.274Z,1018.64
2023-04-08T11:48:41.251Z,1018.66
2023-04-08T11:49:41.286Z,1018.62
2023-04-08T11:50:41.209Z,1018.65
2023-04-08T11:51:41.197Z,1018.64
2023-04-08T11:52:41.204Z,1018.62
2023-04-08T11:53:41.178Z,1018.64
2023-04-08T11:54:41.206Z,1018.67
2023-04-08T11:55:41.147Z,1018.59
2023-04-08T11:56:41.148Z,1018.64
2023-04-08T11:57:41.123Z,1018.62
2023-04-08T11:58:41.126Z,1018.64
2023-04-08T11:59:41.142Z,1018.62
2023-04-08T12:00:41.164Z,1018.72
2023-04-08T12:01:41.130Z,1018.69
2023-04-08T12:02:41.147Z,1018.68
2023-04-08T12:03:41.171Z,1018.68
2023-04-08T12:04:41.112Z,1018.72
2023-04-08T12:05:41.062Z,1018.69
2023-04-08T12:06:41.037Z,1018.71
2023-04-08T12:07:41.032Z,1018.69